Time;durP1;ratioP1;P1;durP2;ratioP2;P2;SDS_P1;SDS_P2;PMS_P1;PMS_P2;Temp;Humidity;BMP_temperature;BMP_pressure;BME280_temperature;BME280_humidity;BME280_pressure;Samples;Min_cycle;Max_cycle;Signal;HPM_P1;HPM_P2
2021/04/25 00:01:10;;;;;;;4.77;2.60;;;6.30;53.10;;;;;;5084538;28;20269;-70
2021/04/25 00:03:37;;;;;;;5.13;2.87;;;6.20;53.00;;;;;;5080895;28;20213;-69
2021/04/25 00:06:05;;;;;;;7.53;3.27;;;6.20;53.10;;;;;;5091977;28;20232;-69
2021/04/25 00:08:35;;;;;;;5.53;2.60;;;6.20;53.10;;;;;;5082619;28;20292;-69
2021/04/25 00:11:03;;;;;;;4.67;3.20;;;6.20;53.20;;;;;;5086506;28;20602;-70
2021/04/25 00:13:30;;;;;;;7.23;3.00;;;6.30;53.60;;;;;;5089179;28;20591;-70
2021/04/25 00:15:57;;;;;;;5.97;2.57;;;6.30;53.60;;;;;;5082308;28;20373;-71
2021/04/25 00:18:23;;;;;;;6.83;2.93;;;6.30;53.80;;;;;;5079775;28;20205;-70
2021/04/25 00:20:50;;;;;;;6.57;2.83;;;6.30;53.70;;;;;;5083966;28;20669;-70
2021/04/25 00:23:16;;;;;;;3.10;2.20;;;6.30;53.70;;;;;;5090355;28;20296;-71
2021/04/25 00:25:44;;;;;;;3.93;2.80;;;6.30;53.60;;;;;;5082032;28;20592;-70
2021/04/25 00:28:11;;;;;;;3.47;2.30;;;6.30;53.60;;;;;;5081223;28;20259;-71
2021/04/25 00:30:37;;;;;;;4.67;2.60;;;6.30;53.50;;;;;;5081512;28;20241;-70
2021/04/25 00:33:05;;;;;;;7.10;2.90;;;6.30;53.60;;;;;;5078912;28;20235;-69
2021/04/25 00:35:32;;;;;;;5.53;2.67;;;6.20;53.80;;;;;;5080383;28;20322;-71
2021/04/25 00:37:58;;;;;;;4.80;3.20;;;6.20;54.00;;;;;;5085208;28;20212;-69
2021/04/25 00:40:25;;;;;;;4.70;2.93;;;6.30;54.10;;;;;;5085114;28;20204;-70
2021/04/25 00:42:52;;;;;;;3.33;2.53;;;6.30;54.20;;;;;;5086871;28;20208;-71
2021/04/25 00:45:19;;;;;;;6.57;3.00;;;6.30;54.10;;;;;;5087693;28;20209;-70
2021/04/25 00:47:47;;;;;;;4.33;2.60;;;6.30;54.00;;;;;;5082632;28;20207;-70
2021/04/25 00:50:15;;;;;;;4.83;2.80;;;6.40;54.10;;;;;;5079173;28;20205;-69
2021/04/25 00:52:43;;;;;;;5.63;2.93;;;6.30;54.20;;;;;;5079789;28;20671;-70
2021/04/25 00:55:11;;;;;;;5.77;2.80;;;6.40;54.50;;;;;;5086233;28;20200;-69
2021/04/25 00:57:38;;;;;;;5.80;2.83;;;6.40;54.50;;;;;;5083771;28;20617;-69
2021/04/25 01:00:11;;;;;;;4.77;2.77;;;6.40;54.60;;;;;;5078091;28;20212;-71
2021/04/25 01:02:40;;;;;;;5.47;2.90;;;6.40;54.50;;;;;;5085247;28;20363;-69
2021/04/25 01:05:09;;;;;;;5.20;3.13;;;6.40;55.10;;;;;;5086431;28;20232;-70
2021/04/25 01:07:36;;;;;;;4.07;2.53;;;6.40;54.50;;;;;;5090124;28;20299;-70
2021/04/25 01:10:03;;;;;;;5.03;2.77;;;6.40;54.50;;;;;;5091314;28;20197;-69
2021/04/25 01:12:30;;;;;;;6.60;2.93;;;6.50;54.70;;;;;;5091549;28;20232;-70
2021/04/25 01:14:58;;;;;;;4.83;2.80;;;6.50;54.60;;;;;;5087025;28;20763;-70
2021/04/25 01:17:25;;;;;;;3.13;2.57;;;6.50;54.40;;;;;;5085093;28;20233;-70
2021/04/25 01:19:52;;;;;;;5.13;2.83;;;6.50;54.30;;;;;;5079361;28;20201;-70
2021/04/25 01:22:19;;;;;;;5.00;2.97;;;6.60;54.20;;;;;;5085129;28;20201;-70
2021/04/25 01:24:45;;;;;;;4.47;2.93;;;6.60;54.20;;;;;;5084769;28;20205;-70
2021/04/25 01:27:12;;;;;;;6.60;2.80;;;6.60;54.00;;;;;;5086051;28;20289;-70
2021/04/25 01:29:39;;;;;;;4.30;2.30;;;6.70;54.10;;;;;;5088872;28;20244;-69
2021/04/25 01:32:06;;;;;;;3.87;2.30;;;6.70;54.00;;;;;;5083660;28;20296;-69
2021/04/25 01:34:34;;;;;;;3.57;2.20;;;6.70;53.80;;;;;;5077310;28;20219;-70
2021/04/25 01:37:03;;;;;;;4.70;2.43;;;6.60;53.40;;;;;;5081350;28;20340;-68
2021/04/25 01:39:30;;;;;;;4.47;2.47;;;6.70;53.50;;;;;;5086043;28;20205;-70
2021/04/25 01:41:57;;;;;;;4.40;2.53;;;6.70;53.50;;;;;;5084775;28;20247;-70
2021/04/25 01:44:23;;;;;;;3.23;2.00;;;6.80;53.50;;;;;;5095703;28;20216;-70
2021/04/25 01:46:50;;;;;;;4.60;2.47;;;6.70;53.30;;;;;;5078654;28;20652;-68
2021/04/25 01:49:16;;;;;;;3.80;2.40;;;6.60;53.10;;;;;;5084495;28;20677;-69
2021/04/25 01:51:43;;;;;;;4.87;2.40;;;6.60;53.20;;;;;;5088256;28;20328;-69
2021/04/25 01:54:10;;;;;;;2.57;1.80;;;6.50;53.30;;;;;;5088033;28;20292;-70
2021/04/25 01:56:38;;;;;;;3.13;2.03;;;6.50;53.30;;;;;;5083198;28;20606;-69
2021/04/25 01:59:05;;;;;;;3.83;2.00;;;6.50;53.30;;;;;;5076325;28;20833;-70
2021/04/25 02:01:33;;;;;;;5.07;2.20;;;6.50;53.30;;;;;;5097410;28;20299;-69
2021/04/25 02:04:00;;;;;;;5.20;2.13;;;6.40;53.20;;;;;;5086598;28;20737;-69
2021/04/25 02:06:26;;;;;;;2.33;1.90;;;6.40;53.20;;;;;;5084094;28;20221;-71
2021/04/25 02:08:53;;;;;;;5.20;2.10;;;6.30;53.20;;;;;;5089649;28;20197;-71
2021/04/25 02:11:19;;;;;;;5.20;2.17;;;6.30;53.10;;;;;;5086599;28;20256;-69
2021/04/25 02:13:47;;;;;;;2.40;1.77;;;6.30;53.10;;;;;;5084706;28;20217;-69
2021/04/25 02:16:14;;;;;;;4.63;1.77;;;6.30;52.70;;;;;;5085120;28;20225;-69
2021/04/25 02:18:40;;;;;;;4.47;1.90;;;6.20;52.30;;;;;;5088247;28;20209;-69
2021/04/25 02:21:08;;;;;;;2.90;1.70;;;6.20;52.20;;;;;;5085490;28;20288;-70
2021/04/25 02:23:34;;;;;;;7.53;2.13;;;6.10;52.10;;;;;;5081696;28;20685;-69
2021/04/25 02:26:01;;;;;;;5.00;2.13;;;6.10;52.20;;;;;;5081506;28;20293;-70
2021/04/25 02:28:27;;;;;;;3.93;2.10;;;6.10;52.50;;;;;;5087650;28;20197;-69
2021/04/25 02:30:55;;;;;;;2.60;1.73;;;6.10;52.80;;;;;;5073160;28;20278;-69
2021/04/25 02:33:21;;;;;;;5.80;1.97;;;6.10;53.00;;;;;;5085394;28;20205;-69
2021/04/25 02:35:48;;;;;;;2.53;1.50;;;6.10;53.00;;;;;;5084003;28;20252;-69
2021/04/25 02:38:15;;;;;;;2.67;1.50;;;6.10;52.80;;;;;;5083612;28;20646;-70
2021/04/25 02:40:42;;;;;;;3.03;1.83;;;6.00;52.60;;;;;;5092185;28;20216;-70
2021/04/25 02:43:08;;;;;;;2.37;1.80;;;6.00;52.60;;;;;;5085257;28;20225;-70
2021/04/25 02:45:35;;;;;;;2.67;1.70;;;5.90;52.80;;;;;;5088765;28;20209;-69
2021/04/25 02:48:04;;;;;;;3.93;2.40;;;6.00;52.90;;;;;;5081206;28;20299;-70
2021/04/25 02:50:33;;;;;;;3.20;1.93;;;5.90;53.90;;;;;;5088085;28;20211;-70
2021/04/25 02:53:00;;;;;;;3.90;2.00;;;5.90;53.50;;;;;;5085701;28;20234;-69
2021/04/25 02:55:26;;;;;;;4.63;2.67;;;5.90;53.50;;;;;;5077885;28;20296;-69
2021/04/25 02:57:53;;;;;;;3.73;2.37;;;5.90;53.60;;;;;;5083060;28;20247;-69
2021/04/25 03:00:24;;;;;;;3.73;2.17;;;6.00;53.80;;;;;;5079849;28;20292;-70
2021/04/25 03:02:51;;;;;;;3.23;2.07;;;6.00;54.00;;;;;;5086119;28;20232;-71
2021/04/25 03:05:18;;;;;;;5.50;2.43;;;6.00;54.20;;;;;;5087881;28;20291;-69
2021/04/25 03:07:45;;;;;;;3.93;2.23;;;6.00;54.10;;;;;;5074339;28;20213;-68
2021/04/25 03:10:13;;;;;;;4.27;2.40;;;6.10;54.30;;;;;;5081588;28;20211;-69
2021/04/25 03:12:40;;;;;;;3.37;2.20;;;6.10;54.40;;;;;;5083110;28;20291;-70
2021/04/25 03:15:09;;;;;;;5.47;2.13;;;6.10;55.00;;;;;;5092008;28;20220;-69
2021/04/25 03:17:36;;;;;;;3.23;1.87;;;6.20;54.50;;;;;;5081589;28;20308;-69
2021/04/25 03:20:04;;;;;;;4.73;2.07;;;6.20;54.50;;;;;;5086954;28;20240;-71
2021/04/25 03:22:31;;;;;;;4.63;2.10;;;6.20;54.50;;;;;;5087320;28;20576;-69
2021/04/25 03:24:58;;;;;;;3.33;2.43;;;6.30;54.50;;;;;;5084228;28;20657;-69
2021/04/25 03:27:24;;;;;;;3.97;2.17;;;6.30;54.50;;;;;;5083985;28;20283;-69
2021/04/25 03:29:51;;;;;;;3.00;2.00;;;6.40;54.30;;;;;;5079387;28;20245;-70
2021/04/25 03:32:17;;;;;;;6.23;2.07;;;6.40;54.20;;;;;;5093038;28;20216;-70
2021/04/25 03:34:44;;;;;;;5.50;2.10;;;6.40;54.40;;;;;;5093360;28;20296;-69
2021/04/25 03:37:11;;;;;;;5.67;2.13;;;6.50;54.10;;;;;;5082155;28;20216;-69
2021/04/25 03:39:39;;;;;;;3.77;2.00;;;6.50;53.90;;;;;;5087958;28;20236;-70
2021/04/25 03:42:06;;;;;;;4.17;1.93;;;6.60;53.60;;;;;;5082392;28;20217;-69
2021/04/25 03:44:33;;;;;;;3.80;2.47;;;6.60;53.40;;;;;;5085920;28;20644;-69
2021/04/25 03:46:59;;;;;;;4.80;2.30;;;6.70;53.40;;;;;;5081901;28;20340;-69
2021/04/25 03:49:26;;;;;;;3.13;2.07;;;6.70;53.50;;;;;;5072665;28;20276;-69
2021/04/25 03:51:54;;;;;;;5.07;2.20;;;6.70;54.00;;;;;;5083360;28;20297;-69
2021/04/25 03:54:21;;;;;;;3.23;2.30;;;6.80;53.50;;;;;;5086767;28;20207;-69
2021/04/25 03:56:52;;;;;;;3.13;2.10;;;6.80;53.50;;;;;;5080590;28;20266;-68
2021/04/25 03:59:18;;;;;;;4.27;2.30;;;6.80;53.50;;;;;;5079626;28;20201;-70
2021/04/25 04:01:45;;;;;;;5.43;2.57;;;6.80;53.50;;;;;;5084767;28;20974;-70
2021/04/25 04:04:11;;;;;;;6.37;2.40;;;6.90;53.60;;;;;;5084575;28;20328;-69
2021/04/25 04:06:38;;;;;;;4.67;2.60;;;7.00;53.60;;;;;;5084116;28;20240;-69
2021/04/25 04:09:05;;;;;;;7.83;2.77;;;7.10;53.70;;;;;;5088936;28;20633;-70
2021/04/25 04:11:31;;;;;;;3.90;2.07;;;7.20;53.80;;;;;;5088911;28;20304;-70
2021/04/25 04:13:59;;;;;;;3.67;2.00;;;7.20;53.40;;;;;;5086145;28;20311;-69
2021/04/25 04:16:26;;;;;;;4.73;2.77;;;7.30;53.20;;;;;;5075537;28;20333;-69
2021/04/25 04:18:52;;;;;;;3.97;2.23;;;7.40;52.90;;;;;;5087731;28;20222;-71
2021/04/25 04:21:19;;;;;;;3.10;2.37;;;7.50;52.80;;;;;;5077968;28;20243;-70
2021/04/25 04:23:45;;;;;;;4.50;2.93;;;7.70;52.70;;;;;;5093487;28;20248;-71
2021/04/25 04:26:13;;;;;;;5.20;2.60;;;7.70;52.40;;;;;;5079749;28;20284;-69
2021/04/25 04:28:39;;;;;;;6.23;3.30;;;7.90;52.20;;;;;;5078341;28;20264;-70
2021/04/25 04:31:07;;;;;;;7.63;3.20;;;8.00;52.00;;;;;;5084157;28;20296;-69
2021/04/25 04:33:33;;;;;;;6.37;3.50;;;8.00;51.70;;;;;;5080997;28;20197;-70
2021/04/25 04:36:00;;;;;;;7.00;2.93;;;8.20;52.00;;;;;;5087286;28;20221;-71
2021/04/25 04:38:26;;;;;;;7.37;3.67;;;8.30;52.30;;;;;;5083303;28;20220;-70
2021/04/25 04:40:53;;;;;;;8.03;3.87;;;8.40;52.40;;;;;;5090094;28;20237;-70
2021/04/25 04:43:19;;;;;;;7.50;3.73;;;8.50;52.70;;;;;;5090443;28;20283;-69
2021/04/25 04:45:45;;;;;;;9.63;4.97;;;8.60;52.80;;;;;;5082569;28;20231;-70
2021/04/25 04:48:13;;;;;;;8.03;4.50;;;8.70;52.90;;;;;;5086505;28;20211;-69
2021/04/25 04:50:39;;;;;;;9.50;5.10;;;8.80;53.00;;;;;;5077764;28;20303;-70
2021/04/25 04:53:08;;;;;;;11.13;4.70;;;9.00;53.00;;;;;;5086694;28;20216;-69
2021/04/25 04:55:34;;;;;;;8.73;5.00;;;9.00;52.80;;;;;;5085430;28;20212;-69
2021/04/25 04:58:00;;;;;;;10.20;4.90;;;9.10;53.00;;;;;;5075937;28;20212;-70
2021/04/25 05:00:27;;;;;;;8.87;4.50;;;9.20;53.10;;;;;;5073870;28;20237;-69
2021/04/25 05:02:54;;;;;;;9.80;4.70;;;9.20;52.80;;;;;;5081264;28;20249;-70
2021/04/25 05:05:21;;;;;;;8.53;4.47;;;9.30;52.50;;;;;;5082784;28;20205;-70
2021/04/25 05:07:47;;;;;;;7.73;4.00;;;9.30;52.00;;;;;;5084021;28;20204;-70
2021/04/25 05:10:14;;;;;;;6.20;3.63;;;9.40;51.50;;;;;;5069985;28;20285;-71
2021/04/25 05:12:40;;;;;;;7.63;3.57;;;9.50;50.80;;;;;;5086810;28;20272;-70
2021/04/25 05:15:07;;;;;;;6.97;3.13;;;9.50;50.30;;;;;;5081198;28;20225;-69
2021/04/25 05:17:34;;;;;;;4.90;3.00;;;9.50;49.20;;;;;;5087625;28;20311;-70
2021/04/25 05:20:00;;;;;;;4.47;2.73;;;9.50;48.60;;;;;;5083735;28;20269;-69
2021/04/25 05:22:28;;;;;;;3.13;2.00;;;9.60;48.10;;;;;;5079772;28;20295;-70
2021/04/25 05:24:55;;;;;;;5.27;2.40;;;9.60;47.10;;;;;;5084260;28;20291;-70
2021/04/25 05:27:21;;;;;;;2.47;1.83;;;9.60;47.10;;;;;;5074646;28;20239;-70
2021/04/25 05:29:48;;;;;;;2.90;2.00;;;9.60;46.10;;;;;;5084804;28;20251;-70
2021/04/25 05:32:15;;;;;;;3.20;2.00;;;9.60;45.90;;;;;;5090850;28;20193;-70
2021/04/25 05:34:41;;;;;;;3.30;1.97;;;9.60;45.40;;;;;;5084614;28;20236;-69
2021/04/25 05:37:07;;;;;;;2.27;1.77;;;9.70;45.50;;;;;;5086177;28;20224;-70
2021/04/25 05:39:35;;;;;;;5.50;2.10;;;9.60;45.10;;;;;;5084894;28;20209;-69
2021/04/25 05:42:01;;;;;;;2.03;1.50;;;9.70;45.10;;;;;;5080052;28;20335;-69
2021/04/25 05:44:28;;;;;;;3.33;1.53;;;9.70;44.80;;;;;;5085758;28;20309;-69
2021/04/25 05:46:55;;;;;;;1.47;1.10;;;9.70;44.00;;;;;;5080499;28;20228;-70
2021/04/25 05:49:21;;;;;;;1.17;0.77;;;9.70;43.30;;;;;;5083587;28;20350;-70
2021/04/25 05:51:47;;;;;;;0.83;0.70;;;9.60;41.90;;;;;;5085830;28;20243;-69
2021/04/25 05:54:14;;;;;;;1.10;0.77;;;9.50;41.60;;;;;;5088697;28;20260;-69
2021/04/25 05:56:42;;;;;;;1.03;0.90;;;9.40;41.30;;;;;;5086457;28;20224;-69
2021/04/25 05:59:08;;;;;;;1.40;0.90;;;9.40;41.10;;;;;;5084616;28;20233;-70
2021/04/25 06:01:34;;;;;;;1.07;0.87;;;9.40;41.10;;;;;;5079476;28;20229;-70
2021/04/25 06:04:01;;;;;;;1.33;0.80;;;9.40;41.10;;;;;;5077443;28;20288;-70
2021/04/25 06:06:27;;;;;;;1.70;1.03;;;9.40;40.90;;;;;;5077792;28;20201;-70
2021/04/25 06:08:53;;;;;;;2.67;1.17;;;9.40;41.10;;;;;;5083664;28;20665;-69
2021/04/25 06:11:20;;;;;;;1.53;1.10;;;9.30;40.70;;;;;;5074878;28;20209;-70
2021/04/25 06:13:47;;;;;;;3.10;1.10;;;9.20;40.80;;;;;;5075485;28;20302;-69
2021/04/25 06:16:13;;;;;;;2.80;1.37;;;9.10;41.50;;;;;;5075601;28;20222;-69
2021/04/25 06:18:40;;;;;;;1.13;1.03;;;9.00;41.30;;;;;;5075395;28;20731;-68
2021/04/25 06:21:06;;;;;;;4.07;1.07;;;8.90;41.60;;;;;;5070838;28;20575;-69
2021/04/25 06:23:32;;;;;;;1.23;0.87;;;8.80;41.40;;;;;;5069475;28;20300;-69
2021/04/25 06:25:59;;;;;;;1.73;1.17;;;8.80;41.30;;;;;;5073043;28;20202;-71
2021/04/25 06:28:27;;;;;;;2.20;1.00;;;8.90;41.00;;;;;;5075651;28;20643;-70
2021/04/25 06:30:55;;;;;;;2.47;0.97;;;9.00;40.30;;;;;;5068711;28;20229;-70
2021/04/25 06:33:22;;;;;;;1.57;0.90;;;9.10;39.80;;;;;;5074258;28;20197;-71
2021/04/25 06:35:49;;;;;;;2.30;0.97;;;9.20;39.10;;;;;;5072894;28;20735;-70
2021/04/25 06:38:15;;;;;;;1.30;0.90;;;9.30;39.30;;;;;;5078484;28;20205;-69
2021/04/25 06:40:42;;;;;;;4.23;1.10;;;9.20;39.30;;;;;;5076712;28;20213;-69
2021/04/25 06:43:09;;;;;;;1.23;0.70;;;9.20;39.50;;;;;;5073958;28;20341;-70
2021/04/25 06:45:36;;;;;;;1.33;0.80;;;9.20;39.30;;;;;;5070720;28;20625;-71
2021/04/25 06:48:04;;;;;;;0.73;0.70;;;9.30;39.40;;;;;;5073236;28;20791;-70
2021/04/25 06:50:30;;;;;;;1.20;0.67;;;9.30;38.20;;;;;;5069825;28;20210;-71
2021/04/25 06:52:56;;;;;;;0.90;0.80;;;9.40;38.60;;;;;;5067736;28;20685;-71
2021/04/25 06:55:24;;;;;;;1.53;0.53;;;9.40;37.10;;;;;;5074923;28;20202;-71
2021/04/25 06:57:51;;;;;;;1.13;0.80;;;9.50;36.40;;;;;;5075143;28;20308;-69
2021/04/25 07:00:20;;;;;;;1.30;0.60;;;9.40;36.00;;;;;;5074621;28;20209;-71
2021/04/25 07:02:47;;;;;;;1.40;0.83;;;9.30;36.00;;;;;;5065508;28;20289;-71
2021/04/25 07:05:15;;;;;;;1.33;0.80;;;9.30;36.00;;;;;;5074139;28;20721;-71
2021/04/25 07:07:41;;;;;;;3.00;0.80;;;9.30;35.90;;;;;;5067620;28;20240;-71
2021/04/25 07:10:09;;;;;;;1.47;1.00;;;9.30;36.40;;;;;;5068414;28;20639;-71
2021/04/25 07:12:36;;;;;;;2.10;1.13;;;9.40;36.50;;;;;;5074427;28;20300;-71
2021/04/25 07:15:04;;;;;;;1.87;0.90;;;9.30;36.40;;;;;;5081125;28;20224;-70
2021/04/25 07:17:30;;;;;;;1.50;0.77;;;9.40;36.70;;;;;;5088882;28;20674;-70
2021/04/25 07:19:56;;;;;;;1.17;0.90;;;9.50;36.70;;;;;;5068488;28;20258;-70
2021/04/25 07:22:24;;;;;;;1.50;0.70;;;9.70;36.90;;;;;;5074824;28;20296;-69
2021/04/25 07:24:50;;;;;;;0.97;0.80;;;9.80;36.60;;;;;;5081493;28;20206;-71
2021/04/25 07:27:17;;;;;;;0.50;0.50;;;9.90;36.10;;;;;;5084400;28;20280;-68
2021/04/25 07:29:44;;;;;;;0.67;0.60;;;9.80;35.50;;;;;;5074127;28;20244;-68
2021/04/25 07:32:11;;;;;;;1.00;0.90;;;9.80;34.40;;;;;;5074777;28;20194;-69
2021/04/25 07:34:37;;;;;;;1.17;1.03;;;9.90;34.60;;;;;;5075556;28;20247;-71
2021/04/25 07:37:05;;;;;;;1.30;1.10;;;10.00;34.20;;;;;;5082309;28;20213;-69
2021/04/25 07:39:33;;;;;;;1.13;0.83;;;10.10;34.50;;;;;;5074475;28;20212;-67
2021/04/25 07:42:00;;;;;;;1.13;1.00;;;10.20;34.70;;;;;;5076736;28;20225;-68
2021/04/25 07:44:26;;;;;;;0.90;0.80;;;10.20;34.40;;;;;;5074982;28;20220;-70
2021/04/25 07:46:53;;;;;;;1.17;0.90;;;10.30;34.40;;;;;;5069320;28;20293;-70
2021/04/25 07:49:19;;;;;;;1.60;0.80;;;10.40;34.60;;;;;;5068960;28;20263;-71
2021/04/25 07:51:47;;;;;;;0.80;0.77;;;10.50;34.70;;;;;;5066152;28;20219;-70
2021/04/25 07:54:13;;;;;;;1.27;1.00;;;10.70;35.00;;;;;;5073300;28;20229;-69
2021/04/25 07:56:41;;;;;;;0.77;0.70;;;10.80;34.60;;;;;;5072822;28;20625;-69
2021/04/25 07:59:08;;;;;;;1.23;0.80;;;11.00;34.20;;;;;;5073004;28;20268;-70
2021/04/25 08:01:34;;;;;;;0.87;0.63;;;11.10;34.80;;;;;;5073533;28;20296;-69
2021/04/25 08:04:01;;;;;;;1.13;0.70;;;11.20;33.90;;;;;;5066937;28;20641;-69
2021/04/25 08:06:27;;;;;;;1.47;0.87;;;11.30;33.70;;;;;;5074513;28;20300;-69
2021/04/25 08:08:54;;;;;;;0.80;0.70;;;11.20;33.40;;;;;;5063499;28;20268;-67
2021/04/25 08:11:21;;;;;;;1.77;1.10;;;11.20;33.40;;;;;;5068017;28;20262;-68
2021/04/25 08:13:48;;;;;;;0.70;0.67;;;11.40;33.60;;;;;;5065800;28;20977;-68
2021/04/25 08:16:15;;;;;;;2.87;0.90;;;11.50;33.40;;;;;;5073603;28;20245;-68
2021/04/25 08:18:42;;;;;;;1.07;0.90;;;11.60;33.10;;;;;;5073459;28;20271;-69
2021/04/25 08:21:08;;;;;;;1.53;0.80;;;11.80;33.00;;;;;;5073490;28;20240;-69
2021/04/25 08:23:36;;;;;;;2.17;0.93;;;12.00;33.20;;;;;;5074058;28;20268;-68
2021/04/25 08:26:02;;;;;;;1.53;0.90;;;12.20;32.90;;;;;;5073362;28;20291;-69
2021/04/25 08:28:29;;;;;;;0.83;0.70;;;12.40;32.70;;;;;;5075505;28;20205;-70
2021/04/25 08:30:56;;;;;;;0.93;0.80;;;12.60;32.50;;;;;;5081232;28;20292;-70
2021/04/25 08:33:23;;;;;;;1.17;1.07;;;12.70;31.70;;;;;;5074570;28;20233;-69
2021/04/25 08:35:49;;;;;;;1.73;0.90;;;12.70;31.30;;;;;;5073763;28;20231;-70
2021/04/25 08:38:16;;;;;;;3.50;0.90;;;12.80;31.20;;;;;;5073978;28;20278;-70
2021/04/25 08:40:42;;;;;;;1.20;0.70;;;12.90;31.00;;;;;;5074851;28;20292;-69
2021/04/25 08:43:12;;;;;;;0.97;0.80;;;12.80;30.70;;;;;;5060599;28;20358;-71
2021/04/25 08:45:40;;;;;;;1.70;0.70;;;12.70;30.90;;;;;;5073874;28;20213;-68
2021/04/25 08:48:14;;;;;;;1.40;0.90;;;12.60;30.80;;;;;;5074914;28;20223;-70
2021/04/25 08:50:41;;;;;;;1.93;0.83;;;12.50;30.60;;;;;;5073534;28;20216;-69
2021/04/25 08:53:08;;;;;;;1.03;0.90;;;12.40;30.40;;;;;;5073674;28;20209;-69
2021/04/25 08:55:34;;;;;;;1.57;0.83;;;12.30;30.60;;;;;;5073648;28;20209;-69
2021/04/25 08:58:01;;;;;;;1.07;0.77;;;12.20;30.40;;;;;;5074718;28;20588;-69
2021/04/25 09:00:27;;;;;;;1.23;1.00;;;12.30;30.60;;;;;;5079145;28;20213;-71
2021/04/25 09:02:54;;;;;;;1.07;0.70;;;12.60;30.90;;;;;;5080351;28;20346;-69
2021/04/25 09:05:22;;;;;;;0.80;0.70;;;12.90;31.10;;;;;;5082235;28;20288;-69
2021/04/25 09:07:56;;;;;;;0.97;0.70;;;13.10;30.50;;;;;;5083385;28;20236;-69
2021/04/25 09:10:30;;;;;;;1.83;0.77;;;13.20;30.20;;;;;;5081087;28;20204;-71
2021/04/25 09:12:57;;;;;;;1.10;0.73;;;13.20;30.00;;;;;;5082100;28;20192;-69
2021/04/25 09:15:27;;;;;;;1.07;0.87;;;13.20;29.90;;;;;;5086012;28;20273;-70
2021/04/25 09:17:55;;;;;;;0.90;0.80;;;13.30;29.90;;;;;;5070391;28;20257;-68
2021/04/25 09:20:34;;;;;;;2.53;0.80;;;13.20;29.70;;;;;;5080458;28;20288;-68
2021/04/25 09:23:00;;;;;;;1.43;0.80;;;13.20;29.90;;;;;;5080220;28;20615;-72
2021/04/25 09:25:27;;;;;;;2.13;1.47;;;13.20;29.80;;;;;;5083514;28;20218;-68
2021/04/25 09:27:54;;;;;;;1.73;0.93;;;13.00;29.50;;;;;;5086358;28;20242;-71
2021/04/25 09:30:22;;;;;;;1.43;0.90;;;12.90;29.50;;;;;;5087250;28;20319;-68
2021/04/25 09:32:59;;;;;;;2.43;1.00;;;12.70;29.50;;;;;;5088264;28;20258;-69
2021/04/25 09:35:26;;;;;;;1.80;1.17;;;12.60;29.60;;;;;;5080186;28;20201;-69
2021/04/25 09:37:53;;;;;;;2.20;0.90;;;12.40;29.80;;;;;;5088752;28;20263;-73
2021/04/25 09:40:21;;;;;;;1.73;1.00;;;12.50;30.00;;;;;;5080331;28;20204;-71
2021/04/25 09:43:00;;;;;;;1.00;0.80;;;12.30;30.00;;;;;;5088427;28;20720;-71
2021/04/25 09:45:30;;;;;;;2.20;1.10;;;12.20;29.90;;;;;;5088514;28;20646;-70
2021/04/25 09:47:58;;;;;;;2.70;1.03;;;12.10;30.00;;;;;;5094267;28;20541;-71
2021/04/25 09:50:26;;;;;;;1.40;0.90;;;12.10;30.40;;;;;;5087705;28;20696;-70
2021/04/25 09:52:53;;;;;;;2.57;0.80;;;12.10;30.40;;;;;;5084924;28;20316;-71
2021/04/25 09:55:23;;;;;;;2.50;0.80;;;12.30;30.60;;;;;;5094804;28;20274;-71
2021/04/25 09:57:51;;;;;;;0.73;0.60;;;12.70;30.90;;;;;;5087422;28;20711;-71
2021/04/25 10:00:19;;;;;;;1.20;0.87;;;13.10;31.30;;;;;;5084526;28;20217;-70
2021/04/25 10:03:00;;;;;;;1.40;0.73;;;13.40;30.90;;;;;;5089351;28;20315;-71
2021/04/25 10:05:29;;;;;;;1.80;0.80;;;13.60;29.90;;;;;;5087481;28;20217;-72
2021/04/25 10:07:56;;;;;;;2.90;0.60;;;13.60;29.60;;;;;;5084661;28;20209;-71
2021/04/25 10:10:23;;;;;;;3.03;0.77;;;13.80;29.90;;;;;;5090552;28;20253;-70
2021/04/25 10:12:50;;;;;;;0.97;0.57;;;13.90;29.80;;;;;;5088395;28;20205;-69
2021/04/25 10:15:18;;;;;;;0.40;0.40;;;13.90;29.50;;;;;;5090134;28;20611;-69
2021/04/25 10:17:46;;;;;;;1.23;0.83;;;13.80;29.20;;;;;;5091615;28;20232;-69
2021/04/25 10:20:14;;;;;;;0.60;0.60;;;13.70;29.10;;;;;;5088090;28;20205;-70
2021/04/25 10:22:43;;;;;;;2.00;0.70;;;13.60;29.30;;;;;;5090472;28;20295;-70
2021/04/25 10:25:13;;;;;;;0.70;0.60;;;13.60;29.30;;;;;;5081465;28;20206;-70
2021/04/25 10:27:48;;;;;;;0.80;0.70;;;13.60;29.50;;;;;;5078650;28;20671;-71
2021/04/25 10:30:16;;;;;;;0.60;0.60;;;13.60;29.90;;;;;;5091160;28;20228;-71
2021/04/25 10:32:45;;;;;;;0.97;0.70;;;13.80;30.40;;;;;;5093428;28;20694;-70
2021/04/25 10:35:15;;;;;;;1.50;0.80;;;14.00;30.70;;;;;;5085039;28;20240;-70
2021/04/25 10:37:43;;;;;;;1.80;0.77;;;14.30;30.60;;;;;;5084731;28;20250;-71
2021/04/25 10:40:20;;;;;;;1.17;1.00;;;14.40;30.50;;;;;;5086419;28;20224;-70
2021/04/25 10:42:55;;;;;;;1.63;1.00;;;14.30;30.80;;;;;;5086229;28;20201;-71
2021/04/25 10:45:31;;;;;;;0.90;0.73;;;14.30;30.90;;;;;;5085908;28;20226;-71
2021/04/25 10:48:29;;;;;;;2.13;0.70;;;14.20;30.90;;;;;;5093327;28;20654;-70
2021/04/25 10:51:03;;;;;;;1.00;0.83;;;14.10;31.10;;;;;;5010037;28;20230;-71
2021/04/25 10:53:35;;;;;;;1.00;0.60;;;14.00;30.70;;;;;;5074278;28;20239;-71
2021/04/25 10:56:37;;;;;;;1.90;0.70;;;14.00;30.60;;;;;;5076257;28;20249;-70
2021/04/25 10:59:26;;;;;;;1.97;0.77;;;13.90;30.20;;;;;;5073413;28;20208;-74
2021/04/25 11:01:57;;;;;;;1.07;0.83;;;13.80;30.30;;;;;;5078652;28;20228;-72
2021/04/25 11:05:05;;;;;;;1.73;0.90;;;13.60;30.80;;;;;;5079830;28;20200;-70
2021/04/25 11:07:47;;;;;;;0.77;0.73;;;13.40;32.30;;;;;;5079161;28;20204;-70
2021/04/25 11:10:22;;;;;;;1.97;1.20;;;13.10;34.40;;;;;;5076406;28;20239;-72
2021/04/25 11:12:49;;;;;;;2.23;1.03;;;13.00;35.70;;;;;;5085368;28;20213;-73
2021/04/25 11:15:55;;;;;;;4.07;1.90;;;12.90;36.70;;;;;;5075863;28;20285;-71
2021/04/25 11:18:41;;;;;;;0.87;0.70;;;12.70;37.10;;;;;;5080559;28;20217;-71
2021/04/25 11:21:50;;;;;;;1.00;0.90;;;12.50;37.60;;;;;;5083570;28;20205;-70
2021/04/25 11:24:40;;;;;;;1.03;0.80;;;12.50;37.90;;;;;;5070690;28;20656;-71
2021/04/25 11:27:09;;;;;;;2.83;1.00;;;12.70;38.20;;;;;;5061091;28;20597;-74
2021/04/25 11:30:04;;;;;;;1.20;1.00;;;12.90;38.10;;;;;;5032346;28;20730;-72
2021/04/25 11:32:35;;;;;;;2.07;0.87;;;13.10;38.20;;;;;;5027431;28;20252;-71
2021/04/25 11:35:11;;;;;;;1.67;0.87;;;13.30;37.80;;;;;;5033240;28;20209;-70
2021/04/25 11:37:37;;;;;;;1.03;0.90;;;13.50;37.50;;;;;;5045467;28;20229;-71
2021/04/25 11:40:07;;;;;;;0.73;0.67;;;13.60;37.10;;;;;;5035267;28;20281;-70
2021/04/25 11:42:37;;;;;;;1.80;0.83;;;13.80;36.60;;;;;;5034070;28;20560;-68
2021/04/25 11:45:07;;;;;;;2.50;0.80;;;14.30;36.70;;;;;;5033788;28;20552;-70
2021/04/25 11:47:34;;;;;;;0.70;0.60;;;14.50;35.30;;;;;;5031997;28;20260;-70
2021/04/25 11:50:04;;;;;;;0.73;0.70;;;14.60;34.40;;;;;;5033732;28;20234;-69
2021/04/25 11:52:34;;;;;;;1.70;0.80;;;14.80;34.10;;;;;;5034359;28;20207;-71
2021/04/25 11:55:03;;;;;;;1.00;0.87;;;15.00;33.50;;;;;;5033443;28;20202;-70
2021/04/25 11:57:32;;;;;;;1.03;0.83;;;15.30;33.70;;;;;;5033795;28;20273;-70
2021/04/25 12:00:03;;;;;;;1.77;0.80;;;15.60;33.30;;;;;;5033275;28;20203;-70
2021/04/25 12:02:31;;;;;;;1.33;0.80;;;16.00;32.50;;;;;;5029082;28;20287;-70
2021/04/25 12:04:59;;;;;;;1.50;0.83;;;16.30;32.40;;;;;;5033459;28;20210;-71
2021/04/25 12:07:37;;;;;;;1.27;0.80;;;16.60;31.50;;;;;;5033576;28;20305;-69
2021/04/25 12:10:14;;;;;;;0.80;0.80;;;16.80;31.10;;;;;;5033166;28;20218;-67
2021/04/25 12:13:08;;;;;;;2.00;0.90;;;17.00;30.40;;;;;;5029270;28;20285;-70
2021/04/25 12:15:41;;;;;;;1.03;0.80;;;16.80;30.00;;;;;;5026100;28;20211;-70
2021/04/25 12:18:09;;;;;;;2.20;0.63;;;16.50;30.30;;;;;;5033807;28;20250;-71
2021/04/25 12:20:41;;;;;;;3.73;0.90;;;16.20;30.70;;;;;;5033063;28;20249;-71
2021/04/25 12:23:10;;;;;;;1.63;0.77;;;15.90;31.00;;;;;;5032823;28;20329;-71
2021/04/25 12:25:37;;;;;;;0.97;0.50;;;15.50;30.60;;;;;;5032954;28;20676;-71
2021/04/25 12:28:04;;;;;;;0.63;0.63;;;15.00;31.00;;;;;;5032353;28;20223;-74
2021/04/25 12:30:31;;;;;;;4.30;1.33;;;14.60;31.40;;;;;;5033174;28;20244;-72
2021/04/25 12:33:13;;;;;;;1.13;0.80;;;14.10;31.70;;;;;;5033469;28;20213;-71
2021/04/25 12:35:41;;;;;;;0.73;0.70;;;13.90;32.40;;;;;;5023236;28;20209;-71
2021/04/25 12:38:22;;;;;;;1.43;0.60;;;13.90;32.40;;;;;;5026464;28;20372;-71
2021/04/25 12:40:56;;;;;;;0.60;0.40;;;13.90;31.90;;;;;;5030437;28;20675;-72
2021/04/25 12:43:24;;;;;;;1.07;0.50;;;13.90;32.20;;;;;;5033166;28;20645;-72
2021/04/25 12:45:51;;;;;;;0.80;0.70;;;13.90;33.30;;;;;;5032569;28;20217;-72
2021/04/25 12:48:29;;;;;;;2.40;0.63;;;14.00;33.00;;;;;;5032368;28;20237;-71
2021/04/25 12:51:11;;;;;;;2.13;0.93;;;14.00;33.60;;;;;;5033382;28;20256;-70
2021/04/25 12:53:43;;;;;;;1.00;0.80;;;14.00;33.50;;;;;;5033970;28;20385;-72
2021/04/25 12:56:26;;;;;;;2.17;0.77;;;13.70;33.60;;;;;;5032995;28;20213;-71
2021/04/25 12:59:10;;;;;;;1.03;0.70;;;13.70;34.60;;;;;;5034874;28;20237;-73
2021/04/25 13:01:40;;;;;;;0.97;0.70;;;13.70;34.70;;;;;;5032361;28;20214;-75